createdAt,value
2023-03-11T00:00:31.227Z,2.69
2023-03-11T00:03:23.146Z,2.67
2023-03-11T00:06:11.638Z,2.57
2023-03-11T00:09:00.011Z,2.66
2023-03-11T00:11:48.371Z,2.55
2023-03-11T00:14:36.820Z,2.51
2023-03-11T00:17:26.662Z,2.50
2023-03-11T00:20:19.387Z,2.52
2023-03-11T00:23:09.101Z,2.55
2023-03-11T00:25:59.754Z,2.63
2023-03-11T00:28:49.412Z,2.65
2023-03-11T00:31:37.767Z,2.63
2023-03-11T00:34:29.795Z,2.62
2023-03-11T00:37:19.053Z,2.77
2023-03-11T00:40:10.990Z,2.73
2023-03-11T00:42:59.718Z,2.66
2023-03-11T00:45:48.280Z,2.62
2023-03-11T00:48:36.642Z,2.63
2023-03-11T00:51:26.402Z,2.69
2023-03-11T00:54:14.981Z,2.65
2023-03-11T00:57:03.323Z,2.70
2023-03-11T00:59:52.448Z,2.56
2023-03-11T01:02:40.992Z,2.52
2023-03-11T01:05:31.097Z,2.46
2023-03-11T01:08:20.740Z,2.49
2023-03-11T01:11:09.598Z,2.47
2023-03-11T01:13:58.094Z,2.41
2023-03-11T01:16:46.718Z,2.46
2023-03-11T01:19:35.028Z,2.45
2023-03-11T01:22:23.714Z,2.46
2023-03-11T01:25:15.297Z,2.45
2023-03-11T01:28:03.606Z,2.45
2023-03-11T01:30:52.164Z,2.43
2023-03-11T01:33:42.361Z,2.48
2023-03-11T01:36:30.733Z,2.52
2023-03-11T01:39:19.163Z,2.58
2023-03-11T01:42:09.102Z,2.61
2023-03-11T01:44:58.152Z,2.63
2023-03-11T01:47:46.528Z,2.65
2023-03-11T01:50:38.423Z,2.69
2023-03-11T01:53:26.971Z,2.63
2023-03-11T01:56:15.884Z,2.53
2023-03-11T01:59:06.726Z,2.41
2023-03-11T02:02:00.022Z,2.41
2023-03-11T02:04:48.573Z,2.44
2023-03-11T02:07:39.361Z,2.38
2023-03-11T02:10:29.108Z,2.36
2023-03-11T02:13:18.108Z,2.40
2023-03-11T02:16:08.857Z,2.39
2023-03-11T02:18:58.439Z,2.36
2023-03-11T02:21:47.100Z,2.36
2023-03-11T02:24:40.624Z,2.32
2023-03-11T02:27:33.059Z,2.29
2023-03-11T02:30:24.358Z,2.26
2023-03-11T02:33:14.867Z,2.22
2023-03-11T02:36:06.510Z,2.17
2023-03-11T02:38:54.999Z,2.19
2023-03-11T02:41:46.107Z,2.09
2023-03-11T02:44:36.152Z,2.13
2023-03-11T02:47:24.810Z,2.07
2023-03-11T02:50:15.448Z,2.07
2023-03-11T02:53:04.773Z,2.03
2023-03-11T02:55:53.071Z,2.07
2023-03-11T02:58:41.542Z,1.96
2023-03-11T03:01:32.723Z,1.82
2023-03-11T03:04:21.806Z,1.83
2023-03-11T03:07:10.874Z,1.83
2023-03-11T03:09:59.321Z,1.80
2023-03-11T03:12:48.052Z,1.83
2023-03-11T03:15:36.479Z,1.80
2023-03-11T03:18:26.509Z,1.81
2023-03-11T03:21:15.012Z,1.77
2023-03-11T03:24:03.823Z,1.75
2023-03-11T03:26:53.833Z,1.72
2023-03-11T03:29:42.381Z,1.74
2023-03-11T03:32:30.941Z,1.66
2023-03-11T03:35:21.139Z,1.63
2023-03-11T03:38:19.904Z,1.61
2023-03-11T03:41:10.554Z,1.57
2023-03-11T03:44:02.307Z,1.59
2023-03-11T03:46:52.067Z,1.59
2023-03-11T03:49:40.813Z,1.67
2023-03-11T03:52:31.169Z,1.71
2023-03-11T03:55:20.250Z,1.71
2023-03-11T03:58:09.245Z,1.71
2023-03-11T04:00:58.760Z,1.73
2023-03-11T04:03:47.286Z,1.73
2023-03-11T04:06:36.313Z,1.79
2023-03-11T04:09:29.444Z,1.85
2023-03-11T04:12:18.617Z,1.92
2023-03-11T04:15:09.564Z,1.94
2023-03-11T04:17:59.048Z,2.02
2023-03-11T04:20:47.726Z,2.02
2023-03-11T04:23:36.749Z,2.11
2023-03-11T04:26:29.059Z,1.94
2023-03-11T04:29:17.637Z,1.92
2023-03-11T04:32:11.253Z,1.87
2023-03-11T04:35:01.169Z,1.87
2023-03-11T04:37:50.625Z,1.88
2023-03-11T04:40:40.679Z,1.67
2023-03-11T04:43:31.093Z,1.73
2023-03-11T04:46:19.745Z,1.67
2023-03-11T04:49:08.637Z,1.62
2023-03-11T04:51:57.094Z,1.57
2023-03-11T04:54:47.190Z,1.46
2023-03-11T04:57:37.958Z,1.34
2023-03-11T05:00:28.229Z,1.28
2023-03-11T05:03:25.152Z,1.30
2023-03-11T05:06:14.086Z,1.35
2023-03-11T05:09:02.715Z,1.31
2023-03-11T05:11:51.932Z,1.28
2023-03-11T05:14:41.857Z,1.33
2023-03-11T05:17:31.897Z,1.25
2023-03-11T05:20:21.001Z,1.30
2023-03-11T05:23:09.849Z,1.19
2023-03-11T05:25:59.077Z,1.13
2023-03-11T05:28:48.161Z,1.10
2023-03-11T05:31:36.647Z,1.01
2023-03-11T05:34:26.618Z,1.03
2023-03-11T05:37:15.358Z,0.92
2023-03-11T05:40:06.669Z,0.86
2023-03-11T05:42:57.604Z,0.80
2023-03-11T05:45:47.937Z,0.85
2023-03-11T05:48:36.549Z,0.76
2023-03-11T05:51:27.144Z,0.83
2023-03-11T05:54:16.033Z,0.90
2023-03-11T05:57:08.050Z,0.87
2023-03-11T05:59:57.020Z,0.85
2023-03-11T06:02:46.217Z,0.88
2023-03-11T06:05:37.851Z,0.85
2023-03-11T06:08:27.851Z,0.88
2023-03-11T06:11:16.683Z,0.89
2023-03-11T06:14:06.142Z,0.86
2023-03-11T06:16:54.681Z,0.88
2023-03-11T06:19:43.132Z,0.94
2023-03-11T06:22:31.989Z,0.86
2023-03-11T06:25:22.064Z,0.85
2023-03-11T06:28:10.962Z,0.92
2023-03-11T06:31:08.705Z,0.89
2023-03-11T06:33:57.470Z,0.95
2023-03-11T06:36:46.054Z,0.92
2023-03-11T06:39:34.414Z,0.92
2023-03-11T06:42:24.441Z,0.85
2023-03-11T06:45:14.905Z,0.94
2023-03-11T06:48:05.065Z,0.91
2023-03-11T06:50:56.018Z,1.01
2023-03-11T06:53:45.133Z,0.95
2023-03-11T06:56:33.715Z,1.01
2023-03-11T06:59:28.813Z,0.96
2023-03-11T07:02:17.743Z,0.93
2023-03-11T07:05:07.280Z,1.01
2023-03-11T07:07:56.723Z,1.10
2023-03-11T07:10:48.315Z,1.25
2023-03-11T07:13:38.148Z,1.15
2023-03-11T07:16:32.247Z,1.18
2023-03-11T07:19:27.625Z,1.18
2023-03-11T07:22:16.606Z,1.27
2023-03-11T07:25:05.617Z,1.29
2023-03-11T07:27:54.087Z,1.33
2023-03-11T07:30:44.562Z,1.31
2023-03-11T07:33:34.406Z,1.34
2023-03-11T07:36:24.999Z,1.54
2023-03-11T07:39:16.208Z,1.36
2023-03-11T07:42:05.672Z,1.44
2023-03-11T07:44:57.726Z,1.47
2023-03-11T07:47:46.104Z,1.31
2023-03-11T07:50:35.846Z,1.39
2023-03-11T07:53:24.640Z,1.60
2023-03-11T07:56:14.998Z,1.67
2023-03-11T07:59:04.765Z,1.74
2023-03-11T08:01:53.571Z,1.80
2023-03-11T08:04:42.040Z,1.71
2023-03-11T08:07:33.807Z,1.59
2023-03-11T08:10:22.136Z,1.55
2023-03-11T08:13:10.573Z,1.71
2023-03-11T08:15:59.052Z,1.83
2023-03-11T08:18:48.526Z,1.84
2023-03-11T08:21:37.126Z,1.80
2023-03-11T08:24:26.906Z,1.79
2023-03-11T08:27:15.248Z,1.75
2023-03-11T08:30:03.725Z,1.78
2023-03-11T08:32:53.139Z,1.83
2023-03-11T08:35:41.748Z,1.69
2023-03-11T08:38:30.465Z,1.77
2023-03-11T08:41:20.883Z,1.78
2023-03-11T08:44:09.285Z,1.85
2023-03-11T08:46:57.800Z,1.98
2023-03-11T08:49:46.215Z,2.03
2023-03-11T08:52:34.883Z,2.01
2023-03-11T08:55:27.744Z,1.98
2023-03-11T08:58:17.542Z,2.01
2023-03-11T09:01:06.839Z,2.10
2023-03-11T09:03:55.616Z,2.35
2023-03-11T09:06:44.656Z,2.37
2023-03-11T09:09:33.583Z,2.48
2023-03-11T09:12:22.935Z,2.73
2023-03-11T09:15:13.157Z,2.77
2023-03-11T09:18:04.831Z,2.72
2023-03-11T09:20:58.161Z,2.87
2023-03-11T09:23:46.771Z,2.89
2023-03-11T09:26:35.222Z,3.00
2023-03-11T09:29:23.630Z,2.83
2023-03-11T09:32:16.040Z,3.05
2023-03-11T09:35:04.695Z,3.12
2023-03-11T09:37:53.250Z,3.14
2023-03-11T09:40:54.386Z,3.01
2023-03-11T09:43:48.826Z,2.88
2023-03-11T09:47:05.829Z,2.72
2023-03-11T09:50:18.929Z,2.90
2023-03-11T09:53:20.972Z,3.04
2023-03-11T09:56:10.931Z,3.28
2023-03-11T09:59:03.533Z,3.20
2023-03-11T10:01:52.340Z,3.11
2023-03-11T10:04:44.837Z,3.33
2023-03-11T10:07:38.887Z,3.31
2023-03-11T10:10:31.397Z,3.29
2023-03-11T10:13:24.937Z,3.24
2023-03-11T10:16:22.133Z,3.22
2023-03-11T10:19:16.118Z,3.39
2023-03-11T10:22:14.574Z,3.52
2023-03-11T10:25:11.718Z,3.62
2023-03-11T10:28:08.594Z,3.76
2023-03-11T10:30:59.903Z,3.76
2023-03-11T10:33:52.457Z,3.81
2023-03-11T10:36:47.496Z,4.01
2023-03-11T10:39:36.161Z,4.05
2023-03-11T10:42:27.295Z,3.94
2023-03-11T10:45:17.949Z,3.86
2023-03-11T10:48:11.822Z,3.81
2023-03-11T10:51:05.404Z,3.88
2023-03-11T10:53:57.374Z,3.93
2023-03-11T10:56:51.654Z,4.03
2023-03-11T10:59:50.560Z,4.07
2023-03-11T11:02:42.122Z,4.28
2023-03-11T11:05:42.308Z,4.26
2023-03-11T11:08:38.996Z,4.21
2023-03-11T11:11:30.469Z,4.17
2023-03-11T11:14:19.105Z,4.14
2023-03-11T11:17:24.700Z,4.01
2023-03-11T11:20:18.072Z,4.39
2023-03-11T11:23:27.127Z,4.58
2023-03-11T11:26:22.011Z,4.60
2023-03-11T11:29:15.591Z,4.68
2023-03-11T11:32:21.213Z,4.68
2023-03-11T11:35:12.941Z,4.55
2023-03-11T11:38:04.343Z,4.45
2023-03-11T11:40:53.606Z,4.23
2023-03-11T11:43:49.017Z,4.14
2023-03-11T11:46:41.237Z,4.07
2023-03-11T11:49:33.353Z,3.97
2023-03-11T11:52:23.929Z,4.08
2023-03-11T11:55:20.771Z,4.13
2023-03-11T11:58:12.309Z,3.99
2023-03-11T12:01:09.709Z,3.78
2023-03-11T12:04:31.172Z,3.79
2023-03-11T12:07:29.724Z,4.04
2023-03-11T12:10:24.654Z,4.47
2023-03-11T12:13:31.752Z,4.70
2023-03-11T12:16:30.653Z,4.63
2023-03-11T12:19:23.090Z,4.35
2023-03-11T12:22:46.152Z,4.32
2023-03-11T12:25:39.101Z,4.50
2023-03-11T12:28:39.229Z,4.40
2023-03-11T12:31:29.179Z,4.26
2023-03-11T12:34:20.992Z,4.19
2023-03-11T12:37:17.069Z,4.30
2023-03-11T12:40:38.596Z,4.44
2023-03-11T12:44:11.965Z,4.69
2023-03-11T12:47:19.281Z,4.60
2023-03-11T12:50:39.496Z,4.25
2023-03-11T12:53:44.515Z,4.62
2023-03-11T12:56:36.961Z,5.04
2023-03-11T13:00:09.764Z,4.89
2023-03-11T13:03:16.035Z,4.77
2023-03-11T13:06:17.865Z,4.57
2023-03-11T13:09:06.704Z,4.27
2023-03-11T13:11:57.119Z,4.69
2023-03-11T13:14:45.934Z,4.63
2023-03-11T13:17:34.438Z,4.70
2023-03-11T13:20:45.146Z,4.89
2023-03-11T13:23:35.950Z,4.84
2023-03-11T13:26:33.162Z,4.69
2023-03-11T13:29:52.073Z,4.68
2023-03-11T13:32:58.452Z,4.95
2023-03-11T13:35:59.556Z,5.02
2023-03-11T13:39:08.703Z,5.33
2023-03-11T13:41:57.287Z,5.28
2023-03-11T13:44:47.109Z,5.12
2023-03-11T13:47:36.813Z,5.31
2023-03-11T13:50:28.425Z,5.57
2023-03-11T13:53:21.239Z,5.60
2023-03-11T13:56:18.493Z,5.84
2023-03-11T13:59:21.833Z,6.02
2023-03-11T14:02:20.068Z,6.14
2023-03-11T14:05:15.260Z,6.13
2023-03-11T14:08:15.792Z,5.91
2023-03-11T14:11:16.921Z,6.04
2023-03-11T14:14:47.822Z,6.09
2023-03-11T14:17:41.589Z,5.61
2023-03-11T14:20:30.290Z,5.60
2023-03-11T14:23:23.006Z,5.77
2023-03-11T14:26:22.703Z,6.04
2023-03-11T14:29:53.613Z,6.34
2023-03-11T14:33:46.993Z,6.66
2023-03-11T14:36:44.986Z,6.47
2023-03-11T14:39:37.716Z,6.48
2023-03-11T14:43:00.691Z,6.46
2023-03-11T14:46:12.562Z,6.49
2023-03-11T14:49:02.589Z,6.55
2023-03-11T14:51:57.141Z,6.52
2023-03-11T14:54:46.807Z,6.60
2023-03-11T14:57:40.720Z,6.83
2023-03-11T15:00:30.893Z,6.81
2023-03-11T15:03:24.276Z,6.73
2023-03-11T15:06:16.532Z,6.70
2023-03-11T15:09:08.043Z,7.23
2023-03-11T15:11:59.210Z,7.41
2023-03-11T15:14:52.182Z,7.69
2023-03-11T15:17:44.358Z,7.77
2023-03-11T15:20:34.887Z,8.08
2023-03-11T15:23:24.170Z,8.21
2023-03-11T15:26:19.891Z,8.62
2023-03-11T15:29:15.098Z,7.99
2023-03-11T15:32:36.391Z,8.14
2023-03-11T15:35:25.698Z,8.22
2023-03-11T15:38:21.625Z,8.04
2023-03-11T15:41:11.550Z,7.63
2023-03-11T15:44:02.097Z,7.57
2023-03-11T15:46:50.401Z,7.39
2023-03-11T15:49:40.313Z,7.71
2023-03-11T15:52:28.810Z,7.61
2023-03-11T15:55:19.488Z,7.50
2023-03-11T15:58:09.251Z,7.08
2023-03-11T16:00:58.635Z,6.96
2023-03-11T16:03:47.109Z,6.82
2023-03-11T16:06:36.872Z,6.52
2023-03-11T16:09:25.291Z,6.31
2023-03-11T16:12:19.092Z,6.31
2023-03-11T16:15:11.887Z,6.35
2023-03-11T16:18:01.109Z,6.06
2023-03-11T16:20:51.919Z,6.10
2023-03-11T16:23:51.613Z,6.06
2023-03-11T16:26:40.637Z,5.88
2023-03-11T16:29:29.047Z,5.49
2023-03-11T16:32:17.507Z,5.58
2023-03-11T16:35:06.686Z,5.77
2023-03-11T16:37:55.612Z,5.36
2023-03-11T16:40:45.459Z,5.49
2023-03-11T16:43:34.020Z,5.30
2023-03-11T16:46:22.412Z,5.38
2023-03-11T16:49:10.750Z,5.52
2023-03-11T16:51:59.225Z,5.62
2023-03-11T16:54:47.747Z,5.15
2023-03-11T16:57:38.810Z,5.19
2023-03-11T17:00:27.960Z,5.29
2023-03-11T17:03:21.337Z,5.10
2023-03-11T17:06:10.419Z,4.90
2023-03-11T17:08:58.910Z,4.77
2023-03-11T17:11:49.962Z,4.52
2023-03-11T17:14:40.101Z,4.17
2023-03-11T17:17:28.565Z,4.25
2023-03-11T17:20:17.189Z,4.31
2023-03-11T17:23:05.696Z,4.26
2023-03-11T17:25:55.966Z,4.21
2023-03-11T17:28:44.956Z,4.11
2023-03-11T17:31:34.836Z,3.80
2023-03-11T17:34:23.974Z,3.66
2023-03-11T17:37:12.436Z,3.73
2023-03-11T17:40:00.911Z,3.70
2023-03-11T17:42:49.318Z,3.88
2023-03-11T17:45:39.981Z,4.05
2023-03-11T17:48:29.829Z,4.08
2023-03-11T17:51:19.528Z,4.12
2023-03-11T17:54:07.917Z,4.21
2023-03-11T17:56:58.935Z,4.32
2023-03-11T17:59:51.015Z,4.21
2023-03-11T18:02:39.408Z,4.32
2023-03-11T18:05:29.116Z,4.38
2023-03-11T18:08:17.553Z,4.40
2023-03-11T18:11:07.896Z,4.44
2023-03-11T18:13:59.273Z,4.43
2023-03-11T18:16:47.729Z,4.35
2023-03-11T18:19:36.602Z,4.35
2023-03-11T18:22:27.060Z,4.37
2023-03-11T18:25:15.571Z,4.41
2023-03-11T18:28:04.100Z,4.41
2023-03-11T18:30:53.964Z,4.45
2023-03-11T18:33:42.809Z,4.45
2023-03-11T18:36:32.367Z,4.42
2023-03-11T18:39:22.227Z,4.27
2023-03-11T18:42:10.934Z,4.25
2023-03-11T18:44:59.680Z,4.19
2023-03-11T18:47:48.127Z,4.19
2023-03-11T18:50:36.488Z,4.20
2023-03-11T18:53:26.026Z,4.24
2023-03-11T18:56:17.406Z,4.22
2023-03-11T18:59:05.972Z,4.23
2023-03-11T19:01:56.524Z,4.23
2023-03-11T19:04:45.165Z,3.91
2023-03-11T19:07:33.953Z,4.02
2023-03-11T19:10:22.806Z,3.95
2023-03-11T19:13:12.792Z,3.92
2023-03-11T19:16:01.299Z,4.02
2023-03-11T19:18:51.368Z,4.03
2023-03-11T19:21:40.337Z,4.03
2023-03-11T19:24:28.933Z,4.00
2023-03-11T19:27:17.453Z,3.96
2023-03-11T19:30:09.844Z,3.94
2023-03-11T19:33:00.800Z,3.89
2023-03-11T19:35:53.342Z,3.53
2023-03-11T19:38:41.911Z,3.61
2023-03-11T19:41:30.340Z,3.65
2023-03-11T19:44:18.939Z,3.68
2023-03-11T19:47:08.824Z,3.66
2023-03-11T19:49:57.463Z,3.66
2023-03-11T19:52:46.439Z,3.66
2023-03-11T19:55:34.873Z,3.67
2023-03-11T19:58:24.730Z,3.68
2023-03-11T20:01:17.590Z,3.61
2023-03-11T20:04:07.556Z,3.59
2023-03-11T20:06:56.092Z,3.48
2023-03-11T20:09:45.074Z,3.43
2023-03-11T20:12:34.396Z,3.21
2023-03-11T20:15:22.819Z,3.15
2023-03-11T20:18:11.436Z,2.93
2023-03-11T20:21:02.785Z,2.73
2023-03-11T20:23:51.661Z,2.66
2023-03-11T20:26:40.135Z,2.74
2023-03-11T20:29:28.658Z,2.59
2023-03-11T20:32:17.448Z,2.38
2023-03-11T20:35:06.999Z,2.38
2023-03-11T20:37:57.055Z,2.34
2023-03-11T20:40:45.542Z,2.21
2023-03-11T20:43:34.224Z,1.91
2023-03-11T20:46:22.770Z,1.99
2023-03-11T20:49:11.556Z,2.00
2023-03-11T20:52:02.887Z,2.08
2023-03-11T20:54:53.052Z,2.24
2023-03-11T20:57:42.456Z,2.27
2023-03-11T21:00:30.938Z,2.40
2023-03-11T21:03:19.839Z,2.41
2023-03-11T21:06:15.566Z,2.45
2023-03-11T21:09:05.790Z,2.50
2023-03-11T21:11:56.060Z,2.46
2023-03-11T21:14:44.628Z,2.30
2023-03-11T21:17:34.109Z,1.99
2023-03-11T21:20:22.858Z,1.80
2023-03-11T21:23:11.378Z,1.83
2023-03-11T21:26:00.405Z,1.91
2023-03-11T21:28:50.434Z,1.97
2023-03-11T21:31:39.066Z,2.00
2023-03-11T21:34:27.539Z,2.01
2023-03-11T21:37:16.246Z,1.97
2023-03-11T21:40:06.155Z,1.69
2023-03-11T21:42:54.866Z,1.42
2023-03-11T21:45:45.232Z,1.40
2023-03-11T21:48:34.180Z,1.59
2023-03-11T21:51:23.047Z,1.78
2023-03-11T21:54:12.770Z,1.90
2023-03-11T21:57:01.449Z,1.99
2023-03-11T21:59:50.113Z,1.81
2023-03-11T22:02:39.884Z,1.57
2023-03-11T22:05:28.515Z,1.60
2023-03-11T22:08:17.046Z,1.71
2023-03-11T22:11:08.927Z,1.80
2023-03-11T22:14:00.834Z,1.72
2023-03-11T22:16:49.413Z,1.80
2023-03-11T22:19:39.325Z,1.92
2023-03-11T22:22:27.884Z,1.78
2023-03-11T22:25:16.437Z,1.62
2023-03-11T22:28:05.491Z,1.62
2023-03-11T22:30:54.022Z,1.30
2023-03-11T22:33:42.682Z,1.38
2023-03-11T22:36:32.504Z,1.54
2023-03-11T22:39:20.820Z,1.67
2023-03-11T22:42:09.258Z,1.59
2023-03-11T22:44:57.655Z,1.57
2023-03-11T22:47:46.091Z,1.64
2023-03-11T22:50:34.967Z,1.55
2023-03-11T22:53:25.153Z,1.55
2023-03-11T22:56:15.163Z,1.45
2023-03-11T22:59:03.711Z,1.57
2023-03-11T23:01:52.143Z,1.58
2023-03-11T23:04:40.541Z,1.52
2023-03-11T23:07:28.899Z,1.42
2023-03-11T23:10:21.013Z,1.50
2023-03-11T23:13:10.067Z,1.47
2023-03-11T23:16:04.727Z,1.54
2023-03-11T23:18:55.009Z,1.33
2023-03-11T23:21:43.401Z,1.40
2023-03-11T23:24:31.940Z,1.49
2023-03-11T23:27:22.400Z,1.51
2023-03-11T23:30:12.188Z,1.46
2023-03-11T23:33:02.792Z,1.50
2023-03-11T23:35:51.275Z,1.53
2023-03-11T23:38:40.009Z,1.59
2023-03-11T23:41:29.309Z,1.59
2023-03-11T23:44:19.472Z,1.54
2023-03-11T23:47:08.054Z,1.52
2023-03-11T23:49:56.602Z,1.50
2023-03-11T23:52:45.108Z,1.55
2023-03-11T23:55:33.623Z,1.54
2023-03-11T23:58:23.480Z,1.47
